Time;durP1;ratioP1;P1;durP2;ratioP2;P2;SDS_P1;SDS_P2;PMS_P1;PMS_P2;Temp;Humidity;BMP_temperature;BMP_pressure;BME280_temperature;BME280_humidity;BME280_pressure;Samples;Min_cycle;Max_cycle;Signal;HPM_P1;HPM_P2
2024/04/03 00:00:57;;;;;;;3.20;1.10;;;;;;;;;;6213124;23;20601;-49
2024/04/03 00:03:25;;;;;;;1.23;0.90;;;;;;;;;;6212419;23;20177;-52
2024/04/03 00:05:51;;;;;;;2.35;1.10;;;;;;;;;;6212859;23;20277;-53
2024/04/03 00:08:19;;;;;;;1.83;1.08;;;;;;;;;;6212753;23;20182;-48
2024/04/03 00:10:46;;;;;;;0.82;0.63;;;;;;;;;;6213028;23;20273;-48
2024/04/03 00:13:14;;;;;;;0.80;0.80;;;;;;;;;;6211882;23;20240;-49
2024/04/03 00:15:40;;;;;;;4.30;1.05;;;;;;;;;;6212853;23;20252;-51
2024/04/03 00:18:08;;;;;;;1.20;1.10;;;;;;;;;;6212560;23;20225;-51
2024/04/03 00:20:37;;;;;;;3.42;1.05;;;;;;;;;;6212263;23;20204;-55
2024/04/03 00:23:04;;;;;;;1.75;0.80;;;;;;;;;;6213187;23;20257;-51
2024/04/03 00:25:31;;;;;;;3.58;1.65;;;;;;;;;;6213149;23;20198;-51
2024/04/03 00:28:00;;;;;;;1.10;0.90;;;;;;;;;;6212569;23;20177;-51
2024/04/03 00:30:26;;;;;;;1.33;1.10;;;;;;;;;;6214055;23;20312;-49
2024/04/03 00:32:54;;;;;;;3.25;1.13;;;;;;;;;;6214114;23;20217;-52
2024/04/03 00:35:20;;;;;;;1.70;0.95;;;;;;;;;;6214298;23;20249;-49
2024/04/03 00:37:47;;;;;;;1.52;1.38;;;;;;;;;;6214532;23;20178;-49
2024/04/03 00:40:14;;;;;;;1.70;1.17;;;;;;;;;;6214586;23;20174;-55
2024/04/03 00:42:42;;;;;;;0.75;0.75;;;;;;;;;;6214584;23;20178;-50
2024/04/03 00:45:10;;;;;;;1.85;0.90;;;;;;;;;;6215238;23;20174;-53
2024/04/03 00:47:37;;;;;;;2.30;1.00;;;;;;;;;;6214941;23;20725;-51
2024/04/03 00:50:04;;;;;;;1.52;1.42;;;;;;;;;;6215129;23;20182;-47
2024/04/03 00:52:32;;;;;;;1.45;1.10;;;;;;;;;;6214611;23;20205;-53
2024/04/03 00:54:59;;;;;;;0.70;0.70;;;;;;;;;;6214832;23;20177;-52
2024/04/03 00:57:26;;;;;;;0.95;0.80;;;;;;;;;;6214039;23;20232;-52
2024/04/03 00:59:53;;;;;;;1.23;1.13;;;;;;;;;;6214855;23;20180;-54
2024/04/03 01:02:22;;;;;;;1.10;1.05;;;;;;;;;;6214055;23;20726;-50
2024/04/03 01:04:48;;;;;;;1.02;0.90;;;;;;;;;;6214281;23;20184;-48
2024/04/03 01:07:16;;;;;;;2.30;1.08;;;;;;;;;;6214019;23;20197;-50
2024/04/03 01:09:42;;;;;;;1.58;1.05;;;;;;;;;;6214281;23;20196;-49
2024/04/03 01:12:10;;;;;;;1.98;1.02;;;;;;;;;;6214227;23;20197;-49
2024/04/03 01:14:36;;;;;;;1.00;0.93;;;;;;;;;;6214289;23;20729;-50
2024/04/03 01:17:04;;;;;;;0.95;0.63;;;;;;;;;;6214592;23;20170;-50
2024/04/03 01:19:32;;;;;;;0.80;0.80;;;;;;;;;;6214472;23;20178;-49
2024/04/03 01:21:59;;;;;;;1.20;0.95;;;;;;;;;;6214064;23;20200;-50
2024/04/03 01:24:27;;;;;;;3.85;2.85;;;;;;;;;;6214198;23;20177;-51
2024/04/03 01:26:54;;;;;;;1.80;0.70;;;;;;;;;;6213565;23;20225;-49
2024/04/03 01:29:22;;;;;;;0.70;0.70;;;;;;;;;;6214683;23;20215;-51
2024/04/03 01:31:50;;;;;;;1.77;0.82;;;;;;;;;;6214753;23;20205;-52
2024/04/03 01:34:16;;;;;;;1.58;0.82;;;;;;;;;;6214301;23;20340;-51
2024/04/03 01:36:44;;;;;;;2.20;1.17;;;;;;;;;;6214622;23;20170;-54
2024/04/03 01:39:10;;;;;;;1.10;0.63;;;;;;;;;;6213992;23;20185;-50
2024/04/03 01:41:39;;;;;;;1.17;0.80;;;;;;;;;;6213648;23;20225;-51
2024/04/03 01:44:05;;;;;;;2.03;1.02;;;;;;;;;;6214372;23;20662;-49
2024/04/03 01:46:33;;;;;;;0.80;0.80;;;;;;;;;;6214417;23;20198;-47
2024/04/03 01:48:59;;;;;;;0.80;0.80;;;;;;;;;;6214468;23;20180;-52
2024/04/03 01:51:27;;;;;;;0.90;0.90;;;;;;;;;;6213310;23;20197;-48
2024/04/03 01:53:54;;;;;;;1.05;0.90;;;;;;;;;;6214061;23;20505;-48
2024/04/03 01:56:21;;;;;;;0.90;0.90;;;;;;;;;;6214492;23;20178;-50
2024/04/03 01:58:50;;;;;;;0.73;0.57;;;;;;;;;;6214486;23;20188;-49
2024/04/03 02:01:16;;;;;;;1.08;1.00;;;;;;;;;;6214352;23;20201;-48
2024/04/03 02:03:43;;;;;;;1.45;0.80;;;;;;;;;;6213309;23;20173;-48
2024/04/03 02:06:11;;;;;;;2.03;0.80;;;;;;;;;;6214369;23;20653;-51
2024/04/03 02:08:38;;;;;;;2.03;0.95;;;;;;;;;;6214299;23;20174;-52
2024/04/03 02:11:05;;;;;;;0.95;0.85;;;;;;;;;;6213910;23;20202;-49
2024/04/03 02:13:32;;;;;;;1.13;0.65;;;;;;;;;;6213731;23;20251;-50
2024/04/03 02:16:00;;;;;;;1.20;0.70;;;;;;;;;;6213549;23;20180;-54
2024/04/03 02:18:28;;;;;;;0.40;0.40;;;;;;;;;;6214060;23;20627;-52
2024/04/03 02:20:54;;;;;;;0.60;0.60;;;;;;;;;;6213666;23;20672;-50
2024/04/03 02:23:21;;;;;;;1.58;1.13;;;;;;;;;;6213405;23;20521;-49
2024/04/03 02:25:48;;;;;;;1.88;0.70;;;;;;;;;;6213800;23;20174;-50
2024/04/03 02:28:15;;;;;;;0.85;0.63;;;;;;;;;;6213450;23;20197;-51
2024/04/03 02:30:42;;;;;;;0.65;0.65;;;;;;;;;;6213769;23;20692;-49
2024/04/03 02:33:11;;;;;;;0.70;0.70;;;;;;;;;;6213772;23;20709;-52
2024/04/03 02:35:38;;;;;;;1.33;0.77;;;;;;;;;;6214141;23;20213;-53
2024/04/03 02:38:06;;;;;;;1.48;0.60;;;;;;;;;;6213711;23;20173;-51
2024/04/03 02:40:32;;;;;;;0.88;0.80;;;;;;;;;;6213873;23;20178;-53
2024/04/03 02:43:00;;;;;;;0.77;0.70;;;;;;;;;;6212906;23;20180;-54
2024/04/03 02:45:26;;;;;;;0.80;0.80;;;;;;;;;;6213967;23;20248;-55
2024/04/03 02:47:56;;;;;;;0.95;0.90;;;;;;;;;;6213261;23;20197;-52
2024/04/03 02:50:24;;;;;;;1.60;0.70;;;;;;;;;;6213775;23;20174;-54
2024/04/03 02:52:52;;;;;;;0.50;0.50;;;;;;;;;;6212615;23;20532;-52
2024/04/03 02:55:18;;;;;;;1.73;0.68;;;;;;;;;;6213576;23;20174;-49
2024/04/03 02:57:45;;;;;;;1.23;0.95;;;;;;;;;;6213585;23;20170;-50
2024/04/03 03:00:13;;;;;;;2.28;1.02;;;;;;;;;;6213399;23;20185;-49
2024/04/03 03:02:41;;;;;;;1.20;0.68;;;;;;;;;;6213001;23;20174;-52
2024/04/03 03:05:07;;;;;;;1.00;0.98;;;;;;;;;;6213314;23;20184;-50
2024/04/03 03:07:36;;;;;;;0.70;0.70;;;;;;;;;;6213378;23;20527;-54
2024/04/03 03:10:03;;;;;;;3.20;1.00;;;;;;;;;;6213865;23;20189;-51
2024/04/03 03:12:31;;;;;;;1.70;0.80;;;;;;;;;;6213128;23;20245;-54
2024/04/03 03:14:57;;;;;;;1.02;0.98;;;;;;;;;;6212896;23;20666;-49
2024/04/03 03:17:25;;;;;;;0.80;0.80;;;;;;;;;;6213370;23;20169;-50
2024/04/03 03:19:51;;;;;;;0.68;0.65;;;;;;;;;;6213490;23;20203;-50
2024/04/03 03:22:20;;;;;;;0.90;0.80;;;;;;;;;;6211283;23;20194;-50
2024/04/03 03:24:50;;;;;;;0.63;0.63;;;;;;;;;;6213496;23;20647;-50
2024/04/03 03:27:17;;;;;;;0.80;0.80;;;;;;;;;;6212858;23;20658;-50
2024/04/03 03:29:44;;;;;;;1.13;0.70;;;;;;;;;;6213141;23;20181;-49
2024/04/03 03:32:11;;;;;;;0.70;0.70;;;;;;;;;;6211733;23;20199;-49
2024/04/03 03:34:38;;;;;;;0.73;0.60;;;;;;;;;;6212788;23;20260;-50
2024/04/03 03:37:05;;;;;;;0.55;0.55;;;;;;;;;;6213138;23;20202;-50
2024/04/03 03:39:33;;;;;;;1.15;0.80;;;;;;;;;;6212298;23;20173;-50
2024/04/03 03:42:02;;;;;;;1.48;0.90;;;;;;;;;;6213030;23;20220;-50
2024/04/03 03:44:29;;;;;;;1.17;1.00;;;;;;;;;;6212058;23;20170;-49
2024/04/03 03:46:56;;;;;;;0.63;0.63;;;;;;;;;;6212627;23;20180;-51
2024/04/03 03:54:59;;;;;;;1.08;0.98;;;;;;;;;;6213204;23;20165;-47
2024/04/03 03:57:30;;;;;;;0.77;0.77;;;;;;;;;;6213410;23;20162;-50
2024/04/03 03:59:58;;;;;;;0.70;0.70;;;;;;;;;;6212916;23;20185;-49
2024/04/03 04:02:27;;;;;;;0.77;0.60;;;;;;;;;;6213182;23;20662;-54
2024/04/03 04:04:53;;;;;;;0.70;0.70;;;;;;;;;;6213648;23;20174;-52
2024/04/03 04:07:22;;;;;;;1.38;0.70;;;;;;;;;;6214982;23;20685;-52
2024/04/03 04:09:49;;;;;;;0.93;0.90;;;;;;;;;;6215524;23;20615;-51
2024/04/03 04:12:16;;;;;;;0.73;0.73;;;;;;;;;;6214343;23;20223;-50
2024/04/03 04:14:49;;;;;;;1.00;0.63;;;;;;;;;;6214308;23;20703;-52
2024/04/03 04:17:16;;;;;;;0.82;0.82;;;;;;;;;;6215163;23;20185;-49
2024/04/03 04:19:46;;;;;;;2.28;0.73;;;;;;;;;;6214569;23;20176;-49
2024/04/03 04:22:14;;;;;;;1.20;0.60;;;;;;;;;;6213685;23;20224;-49
2024/04/03 04:24:43;;;;;;;0.60;0.60;;;;;;;;;;6214889;23;20182;-49
2024/04/03 04:27:10;;;;;;;0.63;0.63;;;;;;;;;;6215507;23;20174;-49
2024/04/03 04:29:40;;;;;;;0.60;0.50;;;;;;;;;;6214754;23;20180;-49
2024/04/03 04:32:09;;;;;;;0.52;0.52;;;;;;;;;;6214832;23;20647;-49
2024/04/03 04:34:39;;;;;;;0.57;0.57;;;;;;;;;;6214516;23;20178;-49
2024/04/03 04:37:07;;;;;;;0.70;0.70;;;;;;;;;;6214970;23;20557;-49
2024/04/03 04:39:33;;;;;;;0.70;0.70;;;;;;;;;;6212631;23;20177;-52
2024/04/03 04:42:01;;;;;;;1.40;0.77;;;;;;;;;;6214256;23;20201;-49
2024/04/03 04:44:28;;;;;;;0.60;0.60;;;;;;;;;;6214184;23;20674;-52
2024/04/03 04:46:57;;;;;;;0.52;0.52;;;;;;;;;;6214276;23;20184;-50
2024/04/03 04:49:25;;;;;;;0.68;0.68;;;;;;;;;;6214729;23;20255;-49
2024/04/03 04:51:55;;;;;;;0.88;0.60;;;;;;;;;;6214458;23;20300;-51
2024/04/03 04:54:23;;;;;;;0.63;0.63;;;;;;;;;;6215007;23;20174;-53
2024/04/03 04:56:50;;;;;;;0.88;0.70;;;;;;;;;;6214345;23;20631;-50
2024/04/03 04:59:17;;;;;;;0.50;0.50;;;;;;;;;;6214382;23;20170;-52
2024/04/03 05:01:44;;;;;;;0.57;0.57;;;;;;;;;;6213690;23;20252;-50
2024/04/03 05:04:11;;;;;;;0.70;0.63;;;;;;;;;;6214045;23;20180;-54
2024/04/03 05:06:40;;;;;;;0.50;0.50;;;;;;;;;;6214175;23;20244;-51
2024/04/03 05:09:07;;;;;;;0.70;0.70;;;;;;;;;;6214699;23;20229;-50
2024/04/03 05:11:35;;;;;;;0.90;0.85;;;;;;;;;;6214208;23;20212;-50
2024/04/03 05:14:01;;;;;;;0.70;0.70;;;;;;;;;;6213966;23;20642;-54
2024/04/03 05:16:29;;;;;;;3.90;0.90;;;;;;;;;;6213735;23;20173;-50
2024/04/03 05:18:55;;;;;;;0.30;0.30;;;;;;;;;;6214749;23;20573;-51
2024/04/03 05:21:23;;;;;;;2.17;0.70;;;;;;;;;;6213531;23;20204;-52
2024/04/03 05:23:52;;;;;;;0.57;0.57;;;;;;;;;;6214505;23;20491;-50
2024/04/03 05:26:18;;;;;;;0.65;0.60;;;;;;;;;;6214533;23;20177;-51
2024/04/03 05:28:46;;;;;;;0.80;0.80;;;;;;;;;;6214213;23;20206;-53
2024/04/03 05:31:14;;;;;;;1.20;0.90;;;;;;;;;;6214212;23;20601;-52
2024/04/03 05:33:45;;;;;;;0.70;0.70;;;;;;;;;;6214082;23;20214;-53
2024/04/03 05:36:12;;;;;;;0.85;0.82;;;;;;;;;;6214698;23;20194;-54
2024/04/03 05:38:41;;;;;;;0.60;0.60;;;;;;;;;;6213690;23;20188;-52
2024/04/03 05:41:09;;;;;;;1.08;0.65;;;;;;;;;;6214453;23;20650;-54
2024/04/03 05:43:37;;;;;;;0.65;0.60;;;;;;;;;;6213912;23;20209;-51
2024/04/03 05:46:04;;;;;;;0.57;0.57;;;;;;;;;;6214000;23;20174;-56
2024/04/03 05:48:31;;;;;;;0.80;0.73;;;;;;;;;;6213737;23;20655;-54
2024/04/03 05:51:02;;;;;;;0.75;0.75;;;;;;;;;;6214550;23;20204;-54
2024/04/03 05:53:29;;;;;;;0.63;0.60;;;;;;;;;;6213619;23;20249;-55
2024/04/03 05:55:56;;;;;;;1.00;1.00;;;;;;;;;;6213508;23;20181;-54
2024/04/03 05:58:26;;;;;;;0.70;0.70;;;;;;;;;;6214040;23;20177;-54
2024/04/03 06:00:52;;;;;;;0.88;0.80;;;;;;;;;;6214401;23;20538;-51
2024/04/03 06:03:20;;;;;;;0.65;0.65;;;;;;;;;;6213821;23;20315;-54
2024/04/03 06:05:52;;;;;;;0.85;0.85;;;;;;;;;;6214205;23;20185;-49
2024/04/03 06:08:20;;;;;;;0.80;0.80;;;;;;;;;;6214488;23;20158;-53
2024/04/03 06:10:46;;;;;;;0.70;0.70;;;;;;;;;;6213959;23;20277;-54
2024/04/03 06:13:15;;;;;;;0.60;0.60;;;;;;;;;;6213490;23;20631;-55
2024/04/03 06:15:43;;;;;;;0.77;0.52;;;;;;;;;;6214154;23;20174;-51
2024/04/03 06:18:11;;;;;;;0.57;0.57;;;;;;;;;;6213091;23;20174;-52
2024/04/03 06:20:37;;;;;;;0.70;0.70;;;;;;;;;;6213593;23;20198;-50
2024/04/03 06:23:06;;;;;;;0.40;0.40;;;;;;;;;;6213581;23;20174;-52
2024/04/03 06:25:32;;;;;;;1.40;0.60;;;;;;;;;;6214222;23;20184;-51
2024/04/03 06:27:59;;;;;;;0.95;0.70;;;;;;;;;;6213367;23;20173;-52
2024/04/03 06:30:27;;;;;;;0.52;0.52;;;;;;;;;;6213584;23;20280;-50
2024/04/03 06:32:55;;;;;;;0.60;0.60;;;;;;;;;;6213626;23;20851;-50
2024/04/03 06:35:24;;;;;;;0.93;0.90;;;;;;;;;;6213234;23;20638;-53
2024/04/03 06:37:50;;;;;;;1.75;1.65;;;;;;;;;;6214077;23;20542;-53
2024/04/03 06:40:19;;;;;;;1.08;1.00;;;;;;;;;;6213525;23;20177;-51
2024/04/03 06:42:46;;;;;;;1.55;1.05;;;;;;;;;;6213490;23;20959;-52
2024/04/03 06:45:13;;;;;;;1.70;1.20;;;;;;;;;;6213620;23;20711;-54
2024/04/03 06:47:40;;;;;;;1.40;1.27;;;;;;;;;;6213491;23;20184;-51
2024/04/03 06:50:09;;;;;;;2.25;1.30;;;;;;;;;;6213400;23;20522;-52
2024/04/03 06:52:37;;;;;;;1.42;1.00;;;;;;;;;;6213065;23;20194;-50
2024/04/03 06:55:04;;;;;;;2.83;1.38;;;;;;;;;;6213489;23;20174;-54
2024/04/03 06:57:31;;;;;;;2.63;1.20;;;;;;;;;;6213581;23;20209;-53
2024/04/03 06:59:58;;;;;;;3.80;1.83;;;;;;;;;;6213797;23;20192;-54
2024/04/03 07:02:25;;;;;;;1.38;1.25;;;;;;;;;;6212621;23;20688;-50
2024/04/03 07:04:52;;;;;;;1.30;1.20;;;;;;;;;;6213449;23;20173;-50
2024/04/03 07:07:21;;;;;;;1.38;1.20;;;;;;;;;;6212685;23;20252;-53
2024/04/03 07:09:47;;;;;;;1.13;1.10;;;;;;;;;;6213171;23;20208;-51
2024/04/03 07:12:15;;;;;;;1.55;1.02;;;;;;;;;;6212720;23;20193;-50
2024/04/03 07:14:41;;;;;;;0.93;0.93;;;;;;;;;;6212983;23;20729;-54
2024/04/03 07:17:09;;;;;;;1.13;1.00;;;;;;;;;;6212633;23;20185;-52
2024/04/03 07:19:37;;;;;;;1.25;1.15;;;;;;;;;;6213466;23;20205;-54
2024/04/03 07:22:07;;;;;;;1.00;0.93;;;;;;;;;;6213343;23;20273;-52
2024/04/03 07:24:34;;;;;;;1.10;0.75;;;;;;;;;;6213453;23;20185;-51
2024/04/03 07:27:02;;;;;;;1.63;1.35;;;;;;;;;;6212749;23;20272;-52
2024/04/03 07:29:28;;;;;;;1.48;1.02;;;;;;;;;;6212461;23;20232;-54
2024/04/03 07:31:56;;;;;;;2.63;1.00;;;;;;;;;;6212311;23;20521;-52
2024/04/03 07:34:22;;;;;;;0.73;0.73;;;;;;;;;;6213088;23;20181;-51
2024/04/03 07:36:50;;;;;;;0.80;0.80;;;;;;;;;;6213098;23;20189;-53
2024/04/03 07:39:16;;;;;;;0.80;0.70;;;;;;;;;;6212865;23;20180;-50
2024/04/03 07:41:45;;;;;;;1.10;1.10;;;;;;;;;;6214390;23;20197;-53
2024/04/03 07:44:16;;;;;;;0.75;0.73;;;;;;;;;;6215293;23;20503;-50
2024/04/03 07:46:43;;;;;;;1.35;0.95;;;;;;;;;;6215507;23;20171;-52
2024/04/03 07:49:10;;;;;;;1.23;0.70;;;;;;;;;;6214858;23;20201;-49
2024/04/03 07:51:38;;;;;;;0.70;0.70;;;;;;;;;;6214561;23;20277;-51
2024/04/03 07:54:04;;;;;;;2.42;1.08;;;;;;;;;;6214726;23;20174;-50
2024/04/03 07:56:32;;;;;;;2.33;2.05;;;;;;;;;;6214797;23;20178;-54
2024/04/03 07:59:02;;;;;;;1.88;1.20;;;;;;;;;;6214852;23;20623;-51
2024/04/03 08:01:29;;;;;;;0.80;0.80;;;;;;;;;;6215294;23;20197;-50
2024/04/03 08:03:56;;;;;;;1.65;1.33;;;;;;;;;;6214468;23;20180;-51
2024/04/03 08:06:27;;;;;;;2.78;1.10;;;;;;;;;;6214762;23;20174;-54
2024/04/03 08:08:53;;;;;;;1.67;1.08;;;;;;;;;;6215211;23;20245;-55
2024/04/03 08:11:21;;;;;;;1.60;0.88;;;;;;;;;;6214655;23;20201;-56
2024/04/03 08:13:48;;;;;;;2.15;1.30;;;;;;;;;;6215095;23;20190;-53
2024/04/03 08:16:17;;;;;;;1.30;1.20;;;;;;;;;;6215005;23;20173;-55
2024/04/03 08:18:44;;;;;;;2.15;1.70;;;;;;;;;;6215086;23;20177;-55
2024/04/03 08:21:11;;;;;;;2.38;1.23;;;;;;;;;;6214684;23;20190;-56
2024/04/03 08:23:38;;;;;;;2.05;1.25;;;;;;;;;;6215101;23;20193;-55
2024/04/03 08:26:07;;;;;;;2.05;1.55;;;;;;;;;;6214725;23;20239;-50
2024/04/03 08:28:36;;;;;;;1.52;1.30;;;;;;;;;;6215149;23;20184;-51
2024/04/03 08:31:10;;;;;;;0.90;0.90;;;;;;;;;;6214843;23;20590;-53
2024/04/03 08:33:37;;;;;;;2.85;1.20;;;;;;;;;;6214910;23;20497;-53
2024/04/03 08:36:07;;;;;;;1.00;0.90;;;;;;;;;;6215187;23;20256;-53
2024/04/03 08:38:33;;;;;;;1.33;1.23;;;;;;;;;;6215192;23;20174;-53
2024/04/03 08:41:02;;;;;;;2.33;1.27;;;;;;;;;;6214527;23;20689;-50
2024/04/03 08:43:29;;;;;;;1.30;1.20;;;;;;;;;;6214488;23;20177;-51
2024/04/03 08:45:58;;;;;;;1.02;1.00;;;;;;;;;;6214993;23;20180;-49
2024/04/03 08:48:25;;;;;;;1.80;0.98;;;;;;;;;;6214972;23;20260;-52
2024/04/03 08:50:54;;;;;;;1.80;1.10;;;;;;;;;;6214195;23;20206;-52
2024/04/03 08:53:23;;;;;;;1.70;1.40;;;;;;;;;;6213986;23;20174;-50
2024/04/03 08:55:52;;;;;;;3.42;1.42;;;;;;;;;;6214807;23;20213;-52
2024/04/03 08:58:21;;;;;;;1.63;1.23;;;;;;;;;;6214486;23;20177;-50
2024/04/03 09:00:49;;;;;;;1.85;1.00;;;;;;;;;;6214703;23;20293;-49
2024/04/03 09:03:16;;;;;;;1.98;1.30;;;;;;;;;;6214447;23;20174;-53
2024/04/03 09:05:45;;;;;;;1.77;1.40;;;;;;;;;;6214406;23;20173;-50
2024/04/03 09:08:13;;;;;;;2.13;1.30;;;;;;;;;;6214750;23;20182;-52
2024/04/03 09:10:47;;;;;;;1.58;1.20;;;;;;;;;;6213932;23;20209;-51
2024/04/03 09:13:14;;;;;;;2.70;1.23;;;;;;;;;;6213919;23;20192;-51
2024/04/03 09:15:41;;;;;;;1.90;1.20;;;;;;;;;;6213969;23;20203;-55
2024/04/03 09:18:09;;;;;;;2.38;1.50;;;;;;;;;;6214511;23;20173;-54
2024/04/03 09:20:39;;;;;;;1.20;1.10;;;;;;;;;;6214168;23;20627;-51
2024/04/03 09:23:08;;;;;;;1.63;1.10;;;;;;;;;;6214322;23;20174;-54
2024/04/03 09:25:38;;;;;;;1.60;1.23;;;;;;;;;;6214405;23;20228;-52
2024/04/03 09:28:07;;;;;;;1.70;1.20;;;;;;;;;;6214339;23;20209;-55
2024/04/03 09:30:36;;;;;;;2.28;1.42;;;;;;;;;;6214300;23;20233;-52
2024/04/03 09:33:04;;;;;;;3.15;1.63;;;;;;;;;;6214248;23;20627;-51
2024/04/03 09:35:35;;;;;;;1.25;1.00;;;;;;;;;;6214006;23;20177;-53
2024/04/03 09:38:02;;;;;;;1.15;1.00;;;;;;;;;;6214095;23;20582;-50
2024/04/03 09:40:33;;;;;;;1.45;1.08;;;;;;;;;;6213569;23;20174;-50
2024/04/03 09:43:05;;;;;;;3.40;1.60;;;;;;;;;;6214053;23;20277;-52
2024/04/03 09:45:33;;;;;;;1.40;1.10;;;;;;;;;;6214273;23;20514;-51
2024/04/03 09:48:02;;;;;;;1.30;1.20;;;;;;;;;;6214050;23;20174;-50
2024/04/03 09:50:40;;;;;;;1.52;1.20;;;;;;;;;;6213958;23;20197;-54
2024/04/03 09:53:09;;;;;;;3.28;1.40;;;;;;;;;;6213634;23;20267;-52
2024/04/03 09:55:37;;;;;;;2.97;2.22;;;;;;;;;;6214405;23;20178;-49
2024/04/03 09:58:11;;;;;;;2.08;1.45;;;;;;;;;;6213897;23;20208;-49
2024/04/03 10:00:39;;;;;;;2.95;1.58;;;;;;;;;;6213809;23;20197;-49
2024/04/03 10:03:08;;;;;;;2.25;1.77;;;;;;;;;;6213423;23;20252;-49
2024/04/03 10:05:36;;;;;;;1.45;1.10;;;;;;;;;;6213587;23;20200;-50
2024/04/03 10:08:08;;;;;;;1.30;1.20;;;;;;;;;;6213744;23;20261;-51
2024/04/03 10:10:35;;;;;;;9.07;2.83;;;;;;;;;;6214108;23;20189;-49
2024/04/03 10:13:03;;;;;;;5.53;1.40;;;;;;;;;;6213404;23;20189;-50
2024/04/03 10:15:31;;;;;;;1.25;1.10;;;;;;;;;;6214514;23;20155;-50
2024/04/03 10:18:04;;;;;;;2.25;1.48;;;;;;;;;;6213145;23;20174;-50
2024/04/03 10:20:37;;;;;;;2.63;1.52;;;;;;;;;;6212680;23;20182;-55
2024/04/03 10:23:07;;;;;;;2.05;1.58;;;;;;;;;;6213690;23;20165;-50
2024/04/03 10:25:37;;;;;;;2.03;0.93;;;;;;;;;;6213766;23;20181;-49
2024/04/03 10:28:11;;;;;;;1.17;1.05;;;;;;;;;;6213879;23;20514;-53
2024/04/03 10:30:39;;;;;;;1.00;1.00;;;;;;;;;;6213251;23;20432;-50
2024/04/03 10:33:06;;;;;;;3.75;1.20;;;;;;;;;;6213501;23;20253;-52
2024/04/03 10:35:33;;;;;;;1.02;0.93;;;;;;;;;;6213521;23;20188;-49
2024/04/03 10:38:01;;;;;;;1.48;1.17;;;;;;;;;;6213201;23;20496;-54
2024/04/03 10:40:30;;;;;;;2.05;1.20;;;;;;;;;;6213162;23;20180;-51
2024/04/03 10:42:56;;;;;;;1.38;0.93;;;;;;;;;;6213108;23;20260;-53
2024/04/03 10:45:27;;;;;;;2.20;1.05;;;;;;;;;;6213394;23;20174;-53
2024/04/03 10:47:53;;;;;;;1.02;0.93;;;;;;;;;;6213816;23;20158;-56
2024/04/03 10:50:21;;;;;;;1.25;0.80;;;;;;;;;;6212595;23;20657;-51
2024/04/03 10:52:48;;;;;;;1.10;1.00;;;;;;;;;;6212617;23;20178;-49
2024/04/03 10:55:19;;;;;;;1.40;1.30;;;;;;;;;;6213969;23;20173;-49
2024/04/03 10:57:47;;;;;;;0.95;0.95;;;;;;;;;;6213816;23;20212;-53
2024/04/03 11:00:16;;;;;;;1.65;0.80;;;;;;;;;;6213309;23;20213;-50
2024/04/03 11:02:46;;;;;;;1.67;1.25;;;;;;;;;;6213240;23;20174;-49
2024/04/03 11:05:15;;;;;;;1.95;1.00;;;;;;;;;;6213188;23;20185;-52
2024/04/03 11:07:43;;;;;;;0.80;0.80;;;;;;;;;;6213716;23;20732;-52
2024/04/03 11:10:12;;;;;;;2.08;1.88;;;;;;;;;;6213383;23;20169;-49
2024/04/03 11:12:39;;;;;;;0.95;0.93;;;;;;;;;;6212979;23;20206;-51
2024/04/03 11:15:09;;;;;;;0.70;0.70;;;;;;;;;;6212730;23;20253;-54
2024/04/03 11:17:36;;;;;;;1.15;0.90;;;;;;;;;;6213689;23;20216;-51
2024/04/03 11:20:06;;;;;;;1.27;0.95;;;;;;;;;;6213172;23;20692;-53
2024/04/03 11:22:32;;;;;;;2.20;0.90;;;;;;;;;;6212581;23;20201;-50
2024/04/03 11:25:01;;;;;;;2.60;0.85;;;;;;;;;;6212737;23;20577;-51
2024/04/03 11:27:28;;;;;;;0.90;0.90;;;;;;;;;;6213458;23;20209;-55
2024/04/03 11:29:55;;;;;;;0.88;0.88;;;;;;;;;;6212671;23;20174;-51
2024/04/03 11:32:22;;;;;;;1.05;0.90;;;;;;;;;;6212347;23;20201;-51
2024/04/03 11:34:49;;;;;;;1.48;1.08;;;;;;;;;;6212294;23;20181;-53
2024/04/03 11:37:17;;;;;;;1.35;1.05;;;;;;;;;;6212904;23;20174;-50
2024/04/03 11:39:44;;;;;;;0.98;0.98;;;;;;;;;;6212712;23;20650;-50
2024/04/03 11:42:12;;;;;;;0.90;0.90;;;;;;;;;;6212492;23;20273;-50
2024/04/03 11:44:39;;;;;;;0.85;0.85;;;;;;;;;;6212445;23;20203;-53
2024/04/03 11:47:05;;;;;;;2.58;1.55;;;;;;;;;;6212955;23;20180;-50
2024/04/03 11:49:33;;;;;;;1.00;0.90;;;;;;;;;;6212993;23;20556;-51
2024/04/03 11:51:59;;;;;;;1.40;1.00;;;;;;;;;;6212505;23;20204;-49
2024/04/03 11:54:28;;;;;;;1.63;1.13;;;;;;;;;;6212457;23;20646;-49
2024/04/03 11:56:55;;;;;;;1.08;0.88;;;;;;;;;;6212800;23;20193;-51
2024/04/03 11:59:23;;;;;;;1.73;0.80;;;;;;;;;;6212766;23;20239;-49
2024/04/03 12:01:49;;;;;;;1.23;0.90;;;;;;;;;;6212424;23;20190;-50
2024/04/03 12:04:17;;;;;;;4.03;0.98;;;;;;;;;;6212306;23;20173;-50
2024/04/03 12:06:43;;;;;;;1.42;1.33;;;;;;;;;;6212946;23;20174;-50
2024/04/03 12:09:11;;;;;;;1.38;1.27;;;;;;;;;;6212353;23;20197;-53
2024/04/03 12:11:39;;;;;;;0.90;0.90;;;;;;;;;;6212502;23;20758;-52
2024/04/03 12:14:08;;;;;;;0.98;0.80;;;;;;;;;;6212833;23;20642;-53
2024/04/03 12:16:35;;;;;;;1.48;1.10;;;;;;;;;;6213302;23;20181;-54
2024/04/03 12:19:13;;;;;;;0.95;0.90;;;;;;;;;;6212984;23;20630;-51
2024/04/03 12:21:40;;;;;;;1.20;1.10;;;;;;;;;;6213356;23;20197;-56
2024/04/03 12:24:08;;;;;;;1.35;0.88;;;;;;;;;;6213126;23;20272;-53
2024/04/03 12:26:34;;;;;;;1.40;1.00;;;;;;;;;;6214085;23;20233;-51
2024/04/03 12:29:03;;;;;;;1.60;1.00;;;;;;;;;;6215155;23;20198;-53
2024/04/03 12:31:30;;;;;;;0.98;0.90;;;;;;;;;;6215023;23;20204;-53
2024/04/03 12:33:58;;;;;;;1.88;1.05;;;;;;;;;;6215179;23;20195;-54
2024/04/03 12:36:25;;;;;;;1.27;1.17;;;;;;;;;;6215325;23;20196;-54
2024/04/03 12:38:53;;;;;;;1.77;0.90;;;;;;;;;;6215010;23;20261;-52
2024/04/03 12:41:21;;;;;;;0.90;0.90;;;;;;;;;;6214821;23;20198;-53
2024/04/03 12:43:49;;;;;;;1.50;1.30;;;;;;;;;;6215155;23;20216;-53
2024/04/03 12:46:17;;;;;;;1.00;0.98;;;;;;;;;;6214962;23;20169;-53
2024/04/03 12:48:44;;;;;;;0.93;0.88;;;;;;;;;;6214441;23;20184;-53
2024/04/03 12:51:10;;;;;;;5.35;2.00;;;;;;;;;;6214719;23;20197;-53
2024/04/03 12:53:38;;;;;;;1.48;1.00;;;;;;;;;;6214103;23;20666;-54
2024/04/03 12:56:05;;;;;;;10.40;2.45;;;;;;;;;;6214152;23;20514;-51
2024/04/03 12:58:32;;;;;;;5.32;1.55;;;;;;;;;;6214549;23;20527;-55
2024/04/03 13:01:02;;;;;;;1.88;1.33;;;;;;;;;;6214030;23;20200;-51
2024/04/03 13:03:30;;;;;;;5.68;1.33;;;;;;;;;;6215032;23;20697;-51
2024/04/03 13:05:57;;;;;;;1.55;1.00;;;;;;;;;;6214913;23;20253;-51
2024/04/03 13:08:24;;;;;;;2.38;1.00;;;;;;;;;;6214171;23;20193;-50
2024/04/03 13:10:51;;;;;;;4.07;1.63;;;;;;;;;;6214501;23;20202;-49
2024/04/03 13:13:19;;;;;;;2.17;1.13;;;;;;;;;;6214281;23;20201;-49
2024/04/03 13:15:46;;;;;;;3.58;1.40;;;;;;;;;;6214672;23;20173;-50
2024/04/03 13:18:14;;;;;;;2.38;0.98;;;;;;;;;;6214181;23;20178;-50
2024/04/03 13:20:41;;;;;;;0.80;0.80;;;;;;;;;;6214693;23;20204;-50
2024/04/03 13:23:09;;;;;;;1.08;0.98;;;;;;;;;;6214009;23;20691;-49
2024/04/03 13:25:36;;;;;;;1.60;0.90;;;;;;;;;;6214487;23;20213;-49
2024/04/03 13:28:03;;;;;;;1.15;1.00;;;;;;;;;;6213782;23;20173;-49
2024/04/03 13:30:30;;;;;;;1.33;1.10;;;;;;;;;;6214256;23;20174;-49
2024/04/03 13:32:57;;;;;;;0.70;0.70;;;;;;;;;;6213949;23;20202;-53
2024/04/03 13:35:23;;;;;;;0.50;0.50;;;;;;;;;;6214657;23;20184;-50
2024/04/03 13:37:52;;;;;;;1.30;0.75;;;;;;;;;;6214081;23;20252;-49
2024/04/03 13:40:19;;;;;;;2.45;1.00;;;;;;;;;;6214291;23;20222;-50
2024/04/03 13:42:47;;;;;;;0.77;0.63;;;;;;;;;;6213462;23;20177;-52
2024/04/03 13:45:13;;;;;;;2.08;0.90;;;;;;;;;;6213965;23;20286;-50
2024/04/03 13:47:41;;;;;;;0.68;0.68;;;;;;;;;;6213683;23;20178;-55
2024/04/03 13:50:08;;;;;;;0.98;0.98;;;;;;;;;;6214189;23;20517;-50
2024/04/03 13:52:35;;;;;;;1.75;1.00;;;;;;;;;;6213725;23;20201;-53
2024/04/03 13:55:04;;;;;;;0.77;0.73;;;;;;;;;;6213943;23;20184;-53
2024/04/03 13:57:31;;;;;;;1.50;0.95;;;;;;;;;;6213654;23;20174;-53
2024/04/03 13:59:58;;;;;;;1.42;0.90;;;;;;;;;;6214335;23;20174;-54
2024/04/03 14:02:25;;;;;;;1.02;0.93;;;;;;;;;;6213492;23;20197;-51
2024/04/03 14:04:52;;;;;;;0.90;0.90;;;;;;;;;;6213379;23;20208;-50
2024/04/03 14:07:19;;;;;;;0.80;0.80;;;;;;;;;;6214064;23;20634;-51
2024/04/03 14:09:46;;;;;;;0.90;0.90;;;;;;;;;;6213674;23;20178;-52
2024/04/03 14:12:15;;;;;;;0.95;0.90;;;;;;;;;;6213226;23;20216;-51
2024/04/03 14:14:41;;;;;;;0.82;0.80;;;;;;;;;;6213097;23;20193;-51
2024/04/03 14:17:09;;;;;;;1.90;1.10;;;;;;;;;;6213250;23;20252;-51
2024/04/03 14:19:35;;;;;;;2.28;0.98;;;;;;;;;;6213263;23;20248;-51
2024/04/03 14:22:03;;;;;;;0.50;0.50;;;;;;;;;;6212757;23;20734;-51
2024/04/03 14:24:29;;;;;;;0.75;0.75;;;;;;;;;;6213067;23;20180;-51
2024/04/03 14:26:56;;;;;;;0.90;0.90;;;;;;;;;;6213532;23;20519;-49
2024/04/03 14:29:24;;;;;;;0.80;0.80;;;;;;;;;;6213522;23;20174;-53
2024/04/03 14:31:52;;;;;;;0.95;0.90;;;;;;;;;;6212766;23;20205;-51
2024/04/03 14:34:19;;;;;;;1.27;1.20;;;;;;;;;;6213481;23;20193;-50
2024/04/03 14:36:46;;;;;;;1.55;1.10;;;;;;;;;;6213486;23;20212;-49
2024/04/03 14:39:14;;;;;;;1.65;0.80;;;;;;;;;;6213659;23;20174;-51
2024/04/03 14:41:42;;;;;;;0.70;0.70;;;;;;;;;;6213672;23;20658;-51
2024/04/03 14:44:08;;;;;;;2.33;1.17;;;;;;;;;;6212833;23;20700;-51
2024/04/03 14:46:37;;;;;;;1.00;1.00;;;;;;;;;;6213835;23;20201;-53
2024/04/03 14:49:03;;;;;;;1.27;1.20;;;;;;;;;;6213004;23;20627;-51
2024/04/03 14:51:31;;;;;;;0.80;0.80;;;;;;;;;;6212833;23;20204;-49